createdAt,value
2018-03-22T00:00:38.512Z,1019.97
2018-03-22T00:01:47.629Z,1019.91
2018-03-22T00:02:56.468Z,1020.01
2018-03-22T00:04:05.312Z,1020
2018-03-22T00:05:14.150Z,1020
2018-03-22T00:06:23.268Z,1019.96
2018-03-22T00:07:32.106Z,1019.96
2018-03-22T00:08:41.225Z,1019.98
2018-03-22T00:09:50.065Z,1019.98
2018-03-22T00:10:58.911Z,1019.94
2018-03-22T00:12:08.281Z,1019.89
2018-03-22T00:13:17.122Z,1019.89
2018-03-22T00:14:25.962Z,1019.86
2018-03-22T00:15:34.804Z,1019.83
2018-03-22T00:16:43.645Z,1019.86
2018-03-22T00:17:52.492Z,1019.8
2018-03-22T00:19:01.331Z,1019.84
2018-03-22T00:20:10.173Z,1019.83
2018-03-22T00:21:19.290Z,1019.83
2018-03-22T00:22:28.132Z,1019.87
2018-03-22T00:23:37.023Z,1019.88
2018-03-22T00:24:45.864Z,1019.86
2018-03-22T00:25:54.986Z,1019.95
2018-03-22T00:27:03.828Z,1019.92
2018-03-22T00:28:12.720Z,1019.88
2018-03-22T00:29:21.939Z,1019.92
2018-03-22T00:30:31.062Z,1019.85
2018-03-22T00:31:39.907Z,1019.87
2018-03-22T00:32:49.029Z,1019.84
2018-03-22T00:33:57.983Z,1019.73
2018-03-22T00:35:07.229Z,1019.74
2018-03-22T00:36:16.056Z,1019.71
2018-03-22T00:37:25.455Z,1019.78
2018-03-22T00:38:34.276Z,1019.7
2018-03-22T00:39:43.106Z,1019.73
2018-03-22T00:40:52.036Z,1019.71
2018-03-22T00:42:00.863Z,1019.71
2018-03-22T00:43:09.693Z,1019.69
2018-03-22T00:44:18.525Z,1019.67
2018-03-22T00:45:27.352Z,1019.66
2018-03-22T00:46:36.328Z,1019.58
2018-03-22T00:47:45.159Z,1019.6
2018-03-22T00:48:53.992Z,1019.59
2018-03-22T00:50:03.095Z,1019.63
2018-03-22T00:51:12.201Z,1019.56
2018-03-22T00:52:21.136Z,1019.54
2018-03-22T00:53:29.969Z,1019.44
2018-03-22T00:54:38.795Z,1019.46
2018-03-22T00:55:47.624Z,1019.39
2018-03-22T00:56:56.452Z,1019.36
2018-03-22T00:58:05.380Z,1019.3
2018-03-22T00:59:14.215Z,1019.31
2018-03-22T01:00:23.082Z,1019.35
2018-03-22T01:01:32.149Z,1019.28
2018-03-22T01:02:40.980Z,1019.26
2018-03-22T01:03:50.059Z,1019.28
2018-03-22T01:04:58.886Z,1019.14
2018-03-22T01:06:07.714Z,1019.23
2018-03-22T01:07:16.546Z,1019.16
2018-03-22T01:08:25.372Z,1019.14
2018-03-22T01:09:34.492Z,1019.09
2018-03-22T01:10:43.336Z,1019.02
2018-03-22T01:11:52.152Z,1018.94
2018-03-22T01:13:00.980Z,1019.04
2018-03-22T01:14:09.811Z,1018.89
2018-03-22T01:15:18.842Z,1018.9
2018-03-22T01:16:27.942Z,1018.91
2018-03-22T01:17:36.770Z,1018.87
2018-03-22T01:18:45.600Z,1018.86
2018-03-22T01:19:54.425Z,1018.85
2018-03-22T01:21:03.355Z,1018.81
2018-03-22T01:22:12.458Z,1018.7
2018-03-22T01:23:22.121Z,1018.76
2018-03-22T01:24:30.948Z,1018.66
2018-03-22T01:25:39.777Z,1018.7
2018-03-22T01:26:48.658Z,1018.64
2018-03-22T01:27:57.485Z,1018.68
2018-03-22T01:29:06.318Z,1018.58
2018-03-22T01:30:15.144Z,1018.52
2018-03-22T01:31:23.974Z,1018.48
2018-03-22T01:32:32.854Z,1018.42
2018-03-22T01:33:41.681Z,1018.44
2018-03-22T01:34:50.602Z,1018.37
2018-03-22T01:35:59.434Z,1018.33
2018-03-22T01:37:08.258Z,1018.27
2018-03-22T01:38:17.388Z,1018.2
2018-03-22T01:39:26.537Z,1018.28
2018-03-22T01:40:35.370Z,1018.17
2018-03-22T01:41:44.264Z,1018.12
2018-03-22T01:42:53.091Z,1018.08
2018-03-22T01:44:01.972Z,1018.05
2018-03-22T01:45:10.796Z,1018.11
2018-03-22T01:46:19.626Z,1018.05
2018-03-22T01:47:28.460Z,1017.94
2018-03-22T01:48:37.283Z,1017.96
2018-03-22T01:49:46.261Z,1017.95
2018-03-22T01:50:55.366Z,1017.86
2018-03-22T01:52:04.194Z,1017.9
2018-03-22T01:53:13.025Z,1017.75
2018-03-22T01:54:21.858Z,1017.82
2018-03-22T01:55:30.728Z,1017.72
2018-03-22T01:56:39.561Z,1017.72
2018-03-22T01:57:48.661Z,1017.67
2018-03-22T01:58:57.490Z,1017.61
2018-03-22T02:00:06.322Z,1017.56
2018-03-22T02:01:15.195Z,1017.55
2018-03-22T02:02:24.034Z,1017.52
2018-03-22T02:03:32.862Z,1017.52
2018-03-22T02:04:41.692Z,1017.45
2018-03-22T02:05:50.518Z,1017.43
2018-03-22T02:06:59.645Z,1017.46
2018-03-22T02:08:08.750Z,1017.35
2018-03-22T02:09:17.580Z,1017.28
2018-03-22T02:10:26.413Z,1017.26
2018-03-22T02:11:35.797Z,1017.33
2018-03-22T02:12:45.203Z,1017.21
2018-03-22T02:13:54.030Z,1017.21
2018-03-22T02:15:02.862Z,1017.13
2018-03-22T02:16:11.974Z,1017.13
2018-03-22T02:17:21.082Z,1017.06
2018-03-22T02:18:30.059Z,1017.06
2018-03-22T02:19:38.888Z,1016.99
2018-03-22T02:20:47.727Z,1017.02
2018-03-22T02:21:56.543Z,1016.96
2018-03-22T02:23:05.373Z,1016.94
2018-03-22T02:24:14.251Z,1016.92
2018-03-22T02:25:23.361Z,1016.82
2018-03-22T02:26:32.194Z,1016.82
2018-03-22T02:27:41.014Z,1016.8
2018-03-22T02:28:49.844Z,1016.69
2018-03-22T02:29:58.721Z,1016.78
2018-03-22T02:31:07.550Z,1016.73
2018-03-22T02:32:16.380Z,1016.74
2018-03-22T02:33:25.207Z,1016.64
2018-03-22T02:34:34.031Z,1016.66
2018-03-22T02:35:43.014Z,1016.57
2018-03-22T02:36:51.843Z,1016.54
2018-03-22T02:38:00.672Z,1016.54
2018-03-22T02:39:09.502Z,1016.48
2018-03-22T02:40:18.329Z,1016.56
2018-03-22T02:41:27.311Z,1016.43
2018-03-22T02:42:36.136Z,1016.49
2018-03-22T02:43:44.966Z,1016.44
2018-03-22T02:44:54.070Z,1016.43
2018-03-22T02:46:03.177Z,1016.37
2018-03-22T02:47:12.392Z,1016.31
2018-03-22T02:48:21.221Z,1016.34
2018-03-22T02:49:30.048Z,1016.38
2018-03-22T02:50:39.152Z,1016.27
2018-03-22T02:51:48.258Z,1016.2
2018-03-22T02:52:57.142Z,1016.16
2018-03-22T02:54:05.966Z,1016.26
2018-03-22T02:55:14.795Z,1016.17
2018-03-22T02:56:23.623Z,1016.12
2018-03-22T02:57:32.728Z,1016.04
2018-03-22T02:58:41.830Z,1015.96
2018-03-22T02:59:50.665Z,1015.93
2018-03-22T03:00:59.489Z,1015.93
2018-03-22T03:02:08.315Z,1015.94
2018-03-22T03:03:17.145Z,1015.92
2018-03-22T03:04:26.225Z,1015.84
2018-03-22T03:05:35.057Z,1015.82
2018-03-22T03:06:44.436Z,1015.85
2018-03-22T03:07:53.262Z,1015.71
2018-03-22T03:09:02.092Z,1015.71
2018-03-22T03:10:11.020Z,1015.66
2018-03-22T03:11:19.847Z,1015.62
2018-03-22T03:12:28.677Z,1015.57
2018-03-22T03:13:37.524Z,1015.49
2018-03-22T03:14:46.613Z,1015.62
2018-03-22T03:15:55.442Z,1015.6
2018-03-22T03:17:04.276Z,1015.5
2018-03-22T03:18:13.377Z,1015.46
2018-03-22T03:19:22.206Z,1015.36
2018-03-22T03:20:31.037Z,1015.38
2018-03-22T03:21:40.014Z,1015.39
2018-03-22T03:22:48.838Z,1015.32
2018-03-22T03:23:57.667Z,1015.27
2018-03-22T03:25:06.493Z,1015.34
2018-03-22T03:26:15.323Z,1015.4
2018-03-22T03:27:24.161Z,1015.28
2018-03-22T03:28:32.977Z,1015.26
2018-03-22T03:29:41.805Z,1015.24
2018-03-22T03:30:50.635Z,1015.25
2018-03-22T03:31:59.460Z,1015.22
2018-03-22T03:33:08.589Z,1015.3
2018-03-22T03:34:17.417Z,1015.26
2018-03-22T03:35:26.245Z,1015.26
2018-03-22T03:36:35.072Z,1015.17
2018-03-22T03:37:44.173Z,1015.19
2018-03-22T03:38:53.201Z,1015.11
2018-03-22T03:40:02.307Z,1015.14
2018-03-22T03:41:11.134Z,1015.13
2018-03-22T03:42:19.959Z,1015.12
2018-03-22T03:43:28.789Z,1015.03
2018-03-22T03:44:37.814Z,1015.03
2018-03-22T03:45:46.642Z,1014.95
2018-03-22T03:46:55.750Z,1014.92
2018-03-22T03:48:04.573Z,1014.93
2018-03-22T03:49:13.401Z,1014.97
2018-03-22T03:50:22.381Z,1014.9
2018-03-22T03:51:31.481Z,1014.92
2018-03-22T03:52:40.308Z,1014.9
2018-03-22T03:53:49.142Z,1014.84
2018-03-22T03:54:57.970Z,1014.91
2018-03-22T03:56:07.355Z,1014.84
2018-03-22T03:57:16.184Z,1014.79
2018-03-22T03:58:25.020Z,1014.79
2018-03-22T03:59:33.844Z,1014.81
2018-03-22T04:00:42.672Z,1014.76
2018-03-22T04:01:51.751Z,1014.81
2018-03-22T04:03:00.584Z,1014.71
2018-03-22T04:04:09.411Z,1014.62
2018-03-22T04:05:18.244Z,1014.62
2018-03-22T04:06:27.067Z,1014.67
2018-03-22T04:07:35.993Z,1014.62
2018-03-22T04:08:44.821Z,1014.55
2018-03-22T04:09:53.650Z,1014.52
2018-03-22T04:11:02.477Z,1014.54
2018-03-22T04:12:11.512Z,1014.56
2018-03-22T04:13:20.643Z,1014.47
2018-03-22T04:14:29.471Z,1014.49
2018-03-22T04:15:38.299Z,1014.44
2018-03-22T04:16:47.130Z,1014.4
2018-03-22T04:17:55.958Z,1014.41
2018-03-22T04:19:04.888Z,1014.37
2018-03-22T04:20:13.721Z,1014.45
2018-03-22T04:21:22.551Z,1014.42
2018-03-22T04:22:31.378Z,1014.33
2018-03-22T04:23:40.207Z,1014.29
2018-03-22T04:24:49.471Z,1014.21
2018-03-22T04:25:58.291Z,1014.15
2018-03-22T04:27:07.119Z,1014.2
2018-03-22T04:28:15.947Z,1014.13
2018-03-22T04:29:24.776Z,1014.19
2018-03-22T04:30:33.929Z,1014.07
2018-03-22T04:31:42.755Z,1014.12
2018-03-22T04:32:51.861Z,1014.07
2018-03-22T04:34:00.690Z,1014.02
2018-03-22T04:35:09.568Z,1013.97
2018-03-22T04:36:18.446Z,1013.94
2018-03-22T04:37:27.551Z,1013.93
2018-03-22T04:38:36.379Z,1013.97
2018-03-22T04:39:45.212Z,1013.95
2018-03-22T04:40:54.039Z,1013.89
2018-03-22T04:42:03.292Z,1013.87
2018-03-22T04:43:12.122Z,1013.88
2018-03-22T04:44:21.224Z,1013.88
2018-03-22T04:45:30.342Z,1013.83
2018-03-22T04:46:39.160Z,1013.76
2018-03-22T04:47:48.310Z,1013.8
2018-03-22T04:48:57.416Z,1013.82
2018-03-22T04:50:06.250Z,1013.79
2018-03-22T04:51:15.348Z,1013.81
2018-03-22T04:52:24.177Z,1013.71
2018-03-22T04:53:33.006Z,1013.78
2018-03-22T04:54:41.833Z,1013.6
2018-03-22T04:55:50.658Z,1013.65
2018-03-22T04:56:59.490Z,1013.56
2018-03-22T04:58:08.316Z,1013.55
2018-03-22T04:59:17.201Z,1013.47
2018-03-22T05:00:26.027Z,1013.42
2018-03-22T05:01:34.911Z,1013.41
2018-03-22T05:02:43.685Z,1013.38
2018-03-22T05:03:52.519Z,1013.42
2018-03-22T05:05:01.397Z,1013.38
2018-03-22T05:06:10.228Z,1013.36
2018-03-22T05:07:19.054Z,1013.41
2018-03-22T05:08:28.164Z,1013.35
2018-03-22T05:09:36.994Z,1013.35
2018-03-22T05:10:46.254Z,1013.32
2018-03-22T05:11:55.083Z,1013.38
2018-03-22T05:13:03.913Z,1013.35
2018-03-22T05:14:12.740Z,1013.35
2018-03-22T05:15:21.846Z,1013.31
2018-03-22T05:16:30.976Z,1013.38
2018-03-22T05:17:39.802Z,1013.29
2018-03-22T05:18:48.633Z,1013.3
2018-03-22T05:19:57.458Z,1013.27
2018-03-22T05:21:06.291Z,1013.2
2018-03-22T05:22:15.270Z,1013.21
2018-03-22T05:23:24.099Z,1013.21
2018-03-22T05:24:32.926Z,1013.24
2018-03-22T05:25:41.754Z,1013.16
2018-03-22T05:26:50.582Z,1013.17
2018-03-22T05:27:59.465Z,1013.15
2018-03-22T05:29:08.577Z,1013.11
2018-03-22T05:30:17.405Z,1013.12
2018-03-22T05:31:26.238Z,1013.11
2018-03-22T05:32:35.075Z,1013.05
2018-03-22T05:33:44.104Z,1012.97
2018-03-22T05:34:52.932Z,1013.06
2018-03-22T05:36:01.762Z,1013.02
2018-03-22T05:37:10.593Z,1013.04
2018-03-22T05:38:19.421Z,1012.92
2018-03-22T05:39:28.298Z,1012.93
2018-03-22T05:40:37.128Z,1012.91
2018-03-22T05:41:45.955Z,1012.95
2018-03-22T05:42:54.783Z,1012.91
2018-03-22T05:44:03.614Z,1012.85
2018-03-22T05:45:12.894Z,1012.8
2018-03-22T05:46:21.725Z,1012.85
2018-03-22T05:47:30.554Z,1012.83
2018-03-22T05:48:39.660Z,1012.83
2018-03-22T05:49:48.482Z,1012.79
2018-03-22T05:50:57.410Z,1012.86
2018-03-22T05:52:06.240Z,1012.86
2018-03-22T05:53:15.067Z,1012.87
2018-03-22T05:54:23.894Z,1012.9
2018-03-22T05:55:33.001Z,1012.88
2018-03-22T05:56:41.882Z,1012.94
2018-03-22T05:57:50.717Z,1012.82
2018-03-22T05:58:59.537Z,1012.85
2018-03-22T06:00:08.366Z,1012.85
2018-03-22T06:01:17.196Z,1012.88
2018-03-22T06:02:26.024Z,1012.81
2018-03-22T06:03:34.851Z,1012.87
2018-03-22T06:04:43.682Z,1012.84
2018-03-22T06:05:52.791Z,1012.81
2018-03-22T06:07:01.621Z,1012.86
2018-03-22T06:08:10.751Z,1012.77
2018-03-22T06:09:19.580Z,1012.88
2018-03-22T06:10:28.411Z,1012.83
2018-03-22T06:11:37.240Z,1012.85
2018-03-22T06:12:46.067Z,1012.84
2018-03-22T06:13:55.045Z,1012.87
2018-03-22T06:15:03.874Z,1012.8
2018-03-22T06:16:12.717Z,1012.9
2018-03-22T06:17:21.548Z,1012.8
2018-03-22T06:18:30.376Z,1012.83
2018-03-22T06:19:39.354Z,1012.89
2018-03-22T06:20:48.184Z,1012.84
2018-03-22T06:21:57.292Z,1012.86
2018-03-22T06:23:06.123Z,1012.87
2018-03-22T06:24:14.961Z,1012.88
2018-03-22T06:25:24.213Z,1012.85
2018-03-22T06:26:33.151Z,1012.83
2018-03-22T06:27:41.983Z,1012.94
2018-03-22T06:28:50.816Z,1012.82
2018-03-22T06:30:00.032Z,1012.86
2018-03-22T06:31:08.874Z,1012.86
2018-03-22T06:32:17.704Z,1012.88
2018-03-22T06:33:26.532Z,1012.84
2018-03-22T06:34:35.358Z,1012.9
2018-03-22T06:35:44.472Z,1012.89
2018-03-22T06:36:53.451Z,1012.88
2018-03-22T06:38:02.281Z,1012.85
2018-03-22T06:39:11.111Z,1012.88
2018-03-22T06:40:19.939Z,1012.84
2018-03-22T06:41:28.776Z,1012.77
2018-03-22T06:42:38.005Z,1012.73
2018-03-22T06:43:46.835Z,1012.73
2018-03-22T06:44:55.660Z,1012.68
2018-03-22T06:46:04.492Z,1012.64
2018-03-22T06:47:13.336Z,1012.64
2018-03-22T06:48:22.933Z,1012.62
2018-03-22T06:49:32.069Z,1012.62
2018-03-22T06:50:40.859Z,1012.56
2018-03-22T06:51:49.688Z,1012.6
2018-03-22T06:52:58.796Z,1012.53
2018-03-22T06:54:07.998Z,1012.45
2018-03-22T06:55:16.828Z,1012.36
2018-03-22T06:56:25.658Z,1012.35
2018-03-22T06:57:34.492Z,1012.33
2018-03-22T06:58:43.318Z,1012.35
2018-03-22T06:59:52.297Z,1012.31
2018-03-22T07:01:01.129Z,1012.32
2018-03-22T07:02:09.957Z,1012.45
2018-03-22T07:03:18.785Z,1012.41
2018-03-22T07:04:27.713Z,1012.38
2018-03-22T07:05:36.640Z,1012.36
2018-03-22T07:06:45.470Z,1012.44
2018-03-22T07:07:54.301Z,1012.41
2018-03-22T07:09:03.130Z,1012.43
2018-03-22T07:10:11.960Z,1012.41
2018-03-22T07:11:21.169Z,1012.36
2018-03-22T07:12:30.001Z,1012.28
2018-03-22T07:13:38.828Z,1012.37
2018-03-22T07:14:47.658Z,1012.31
2018-03-22T07:15:56.488Z,1012.29
2018-03-22T07:17:05.516Z,1012.22
2018-03-22T07:18:14.295Z,1012.23
2018-03-22T07:19:23.126Z,1012.2
2018-03-22T07:20:32.266Z,1012.21
2018-03-22T07:21:41.115Z,1012.17
2018-03-22T07:22:50.049Z,1012.13
2018-03-22T07:23:58.883Z,1012.14
2018-03-22T07:25:07.707Z,1012.14
2018-03-22T07:26:16.537Z,1012.12
2018-03-22T07:27:25.642Z,1012.12
2018-03-22T07:28:34.727Z,1012.14
2018-03-22T07:29:43.630Z,1012.14
2018-03-22T07:30:52.458Z,1012.17
2018-03-22T07:32:01.290Z,1012.11
2018-03-22T07:33:10.397Z,1012.14
2018-03-22T07:34:19.376Z,1012.15
2018-03-22T07:35:28.528Z,1012.08
2018-03-22T07:36:37.359Z,1012.07
2018-03-22T07:37:46.189Z,1012.05
2018-03-22T07:38:55.019Z,1012.07
2018-03-22T07:40:03.898Z,1012.09
2018-03-22T07:41:12.729Z,1012.11
2018-03-22T07:42:21.559Z,1012.11
2018-03-22T07:43:30.395Z,1012.14
2018-03-22T07:44:39.502Z,1012.16
2018-03-22T07:45:48.335Z,1012.16
2018-03-22T07:46:57.170Z,1012.2
2018-03-22T07:48:06.000Z,1012.14
2018-03-22T07:49:15.107Z,1012.11
2018-03-22T07:50:23.940Z,1012.11
2018-03-22T07:51:33.147Z,1012.11
2018-03-22T07:52:41.993Z,1012.11
2018-03-22T07:53:51.369Z,1012.05
2018-03-22T07:55:00.199Z,1012.04
2018-03-22T07:56:09.027Z,1012.03
2018-03-22T07:57:18.106Z,1012.06
2018-03-22T07:58:26.936Z,1012.11
2018-03-22T07:59:35.765Z,1012.05
2018-03-22T08:00:44.594Z,1012.03
2018-03-22T08:01:53.437Z,1011.99
2018-03-22T08:03:02.312Z,1012.08
2018-03-22T08:04:11.462Z,1012.05
2018-03-22T08:05:20.248Z,1012.03
2018-03-22T08:06:29.077Z,1011.99
2018-03-22T08:07:37.907Z,1011.97
2018-03-22T08:08:47.037Z,1011.93
2018-03-22T08:09:55.868Z,1011.91
2018-03-22T08:11:04.973Z,1011.84
2018-03-22T08:12:13.802Z,1011.89
2018-03-22T08:13:22.632Z,1011.94
2018-03-22T08:14:31.662Z,1011.93
2018-03-22T08:15:40.500Z,1011.92
2018-03-22T08:16:49.398Z,1011.95
2018-03-22T08:17:58.296Z,1011.9
2018-03-22T08:19:08.386Z,1011.94
2018-03-22T08:20:17.307Z,1011.87
2018-03-22T08:21:26.171Z,1011.83
2018-03-22T08:22:35.441Z,1011.8
2018-03-22T08:23:44.590Z,1011.78
2018-03-22T08:24:53.420Z,1011.77
2018-03-22T08:26:02.329Z,1011.79
2018-03-22T08:27:12.346Z,1011.79
2018-03-22T08:28:21.216Z,1011.75
2018-03-22T08:29:30.420Z,1011.72
2018-03-22T08:30:39.505Z,1011.71
2018-03-22T08:31:48.963Z,1011.72
2018-03-22T08:32:58.047Z,1011.83
2018-03-22T08:34:06.938Z,1011.75
2018-03-22T08:35:16.287Z,1011.66
2018-03-22T08:36:25.326Z,1011.74
2018-03-22T08:37:34.996Z,1011.65
2018-03-22T08:38:44.436Z,1011.64
2018-03-22T08:39:54.061Z,1011.57
2018-03-22T08:41:03.410Z,1011.67
2018-03-22T08:42:12.770Z,1011.54
2018-03-22T08:43:22.332Z,1011.58
2018-03-22T08:44:31.389Z,1011.65
2018-03-22T08:45:41.100Z,1011.64
2018-03-22T08:46:50.820Z,1011.65
2018-03-22T08:47:59.661Z,1011.61
2018-03-22T08:49:09.030Z,1011.55
2018-03-22T08:50:17.945Z,1011.65
2018-03-22T08:51:27.029Z,1011.57
2018-03-22T08:52:36.650Z,1011.58
2018-03-22T08:53:45.493Z,1011.6
2018-03-22T08:54:54.920Z,1011.56
2018-03-22T08:56:04.317Z,1011.58
2018-03-22T08:57:13.151Z,1011.58
2018-03-22T08:58:22.446Z,1011.55
2018-03-22T08:59:31.794Z,1011.54
2018-03-22T09:00:40.832Z,1011.53
2018-03-22T09:01:49.666Z,1011.52
2018-03-22T09:02:58.785Z,1011.57
2018-03-22T09:04:07.617Z,1011.54
2018-03-22T09:05:16.463Z,1011.57
2018-03-22T09:06:25.443Z,1011.53
2018-03-22T09:07:34.365Z,1011.52
2018-03-22T09:08:43.278Z,1011.56
2018-03-22T09:09:52.408Z,1011.53
2018-03-22T09:11:01.679Z,1011.49
2018-03-22T09:12:10.660Z,1011.54
2018-03-22T09:13:19.772Z,1011.53
2018-03-22T09:14:28.604Z,1011.55
2018-03-22T09:15:37.434Z,1011.56
2018-03-22T09:16:46.272Z,1011.56
2018-03-22T09:17:55.101Z,1011.63
2018-03-22T09:19:03.939Z,1011.63
2018-03-22T09:20:12.784Z,1011.57
2018-03-22T09:21:21.621Z,1011.52
2018-03-22T09:22:30.739Z,1011.57
2018-03-22T09:23:39.559Z,1011.62
2018-03-22T09:24:48.665Z,1011.61
2018-03-22T09:25:57.498Z,1011.64
2018-03-22T09:27:06.605Z,1011.61
2018-03-22T09:28:15.442Z,1011.66
2018-03-22T09:29:24.320Z,1011.64
2018-03-22T09:30:33.153Z,1011.63
2018-03-22T09:31:41.984Z,1011.56
2018-03-22T09:32:50.817Z,1011.62
2018-03-22T09:33:59.647Z,1011.56
2018-03-22T09:35:08.628Z,1011.51
2018-03-22T09:36:17.459Z,1011.52
2018-03-22T09:37:26.299Z,1011.49
2018-03-22T09:38:35.190Z,1011.57
2018-03-22T09:39:44.241Z,1011.54
2018-03-22T09:40:53.220Z,1011.53
2018-03-22T09:42:02.051Z,1011.6
2018-03-22T09:43:10.883Z,1011.6
2018-03-22T09:44:19.717Z,1011.53
2018-03-22T09:45:28.550Z,1011.56
2018-03-22T09:46:37.430Z,1011.48
2018-03-22T09:47:46.262Z,1011.52
2018-03-22T09:48:55.095Z,1011.57
2018-03-22T09:50:04.204Z,1011.56
2018-03-22T09:51:13.040Z,1011.48
2018-03-22T09:52:21.954Z,1011.53
2018-03-22T09:53:30.785Z,1011.44
2018-03-22T09:54:39.636Z,1011.44
2018-03-22T09:55:48.475Z,1011.44
2018-03-22T09:56:57.331Z,1011.4
2018-03-22T09:58:06.283Z,1011.41
2018-03-22T09:59:15.112Z,1011.39
2018-03-22T10:00:24.220Z,1011.43
2018-03-22T10:01:33.053Z,1011.42
2018-03-22T10:02:41.884Z,1011.43
2018-03-22T10:03:51.144Z,1011.44
2018-03-22T10:04:59.977Z,1011.49
2018-03-22T10:06:08.809Z,1011.44
2018-03-22T10:07:17.641Z,1011.45
2018-03-22T10:08:26.615Z,1011.53
2018-03-22T10:09:35.677Z,1011.48
2018-03-22T10:10:44.508Z,1011.42
2018-03-22T10:11:53.341Z,1011.51
2018-03-22T10:13:02.172Z,1011.45
2018-03-22T10:14:11.009Z,1011.45
2018-03-22T10:15:19.887Z,1011.47
2018-03-22T10:16:28.720Z,1011.45
2018-03-22T10:17:37.552Z,1011.43
2018-03-22T10:18:46.389Z,1011.39
2018-03-22T10:19:55.228Z,1011.44
2018-03-22T10:21:04.205Z,1011.46
2018-03-22T10:22:13.042Z,1011.51
2018-03-22T10:23:21.872Z,1011.49
2018-03-22T10:24:30.713Z,1011.41
2018-03-22T10:25:39.540Z,1011.44
2018-03-22T10:26:48.422Z,1011.39
2018-03-22T10:27:57.255Z,1011.38
2018-03-22T10:29:06.094Z,1011.44
2018-03-22T10:30:15.199Z,1011.42
2018-03-22T10:31:24.306Z,1011.5
2018-03-22T10:32:33.287Z,1011.42
2018-03-22T10:33:42.395Z,1011.37
2018-03-22T10:34:51.227Z,1011.4
2018-03-22T10:36:00.062Z,1011.37
2018-03-22T10:37:08.903Z,1011.43
2018-03-22T10:38:17.731Z,1011.38
2018-03-22T10:39:26.562Z,1011.36
2018-03-22T10:40:35.392Z,1011.32
2018-03-22T10:41:44.225Z,1011.36
2018-03-22T10:42:53.067Z,1011.36
2018-03-22T10:44:01.911Z,1011.31
2018-03-22T10:45:10.876Z,1011.31
2018-03-22T10:46:19.718Z,1011.37
2018-03-22T10:47:28.541Z,1011.34
2018-03-22T10:48:37.657Z,1011.4
2018-03-22T10:49:46.488Z,1011.43
2018-03-22T10:50:55.319Z,1011.37
2018-03-22T10:52:04.174Z,1011.39
2018-03-22T10:53:13.076Z,1011.35
2018-03-22T10:54:21.913Z,1011.32
2018-03-22T10:55:31.065Z,1011.35
2018-03-22T10:56:40.198Z,1011.32
2018-03-22T10:57:49.131Z,1011.34
2018-03-22T10:58:58.190Z,1011.29
2018-03-22T11:00:07.110Z,1011.3
2018-03-22T11:01:16.029Z,1011.38
2018-03-22T11:02:25.242Z,1011.26
2018-03-22T11:03:34.723Z,1011.3
2018-03-22T11:04:43.619Z,1011.32
2018-03-22T11:05:52.813Z,1011.36
2018-03-22T11:07:01.705Z,1011.27
2018-03-22T11:08:10.536Z,1011.31
2018-03-22T11:09:19.373Z,1011.24
2018-03-22T11:10:28.493Z,1011.19
2018-03-22T11:11:37.326Z,1011.17
2018-03-22T11:12:46.172Z,1011.22
2018-03-22T11:13:55.658Z,1011.19
2018-03-22T11:15:04.554Z,1011.22
2018-03-22T11:16:13.621Z,1011.25
2018-03-22T11:17:23.080Z,1011.28
2018-03-22T11:18:32.166Z,1011.22
2018-03-22T11:19:41.335Z,1011.26
2018-03-22T11:20:50.283Z,1011.24
2018-03-22T11:21:59.619Z,1011.25
2018-03-22T11:23:08.808Z,1011.25
2018-03-22T11:24:18.193Z,1011.26
2018-03-22T11:25:27.065Z,1011.27
2018-03-22T11:26:36.197Z,1011.23
2018-03-22T11:27:45.328Z,1011.27
2018-03-22T11:28:54.617Z,1011.26
2018-03-22T11:30:04.238Z,1011.25
2018-03-22T11:31:13.109Z,1011.15
2018-03-22T11:32:22.808Z,1011.22
2018-03-22T11:33:32.144Z,1011.25
2018-03-22T11:34:40.997Z,1011.23
2018-03-22T11:35:50.409Z,1011.23
2018-03-22T11:36:59.828Z,1011.27
2018-03-22T11:38:09.004Z,1011.23
2018-03-22T11:39:17.929Z,1011.28
2018-03-22T11:40:27.019Z,1011.3
2018-03-22T11:41:36.155Z,1011.29
2018-03-22T11:42:44.983Z,1011.25
2018-03-22T11:43:54.040Z,1011.31
2018-03-22T11:45:03.030Z,1011.28
2018-03-22T11:46:11.875Z,1011.3
2018-03-22T11:47:21.262Z,1011.3
2018-03-22T11:48:30.132Z,1011.34
2018-03-22T11:49:38.964Z,1011.33
2018-03-22T11:50:48.061Z,1011.3
2018-03-22T11:51:56.987Z,1011.29
2018-03-22T11:53:06.638Z,1011.35
2018-03-22T11:54:15.507Z,1011.36
2018-03-22T11:57:03.750Z,1011.32
2018-03-22T11:58:12.604Z,1011.33
2018-03-22T11:59:22.169Z,1011.45
2018-03-22T12:00:31.221Z,1011.36
2018-03-22T12:01:40.096Z,1011.34
2018-03-22T12:02:49.222Z,1011.35
2018-03-22T12:03:58.110Z,1011.34
2018-03-22T12:05:06.986Z,1011.38
2018-03-22T12:07:54.432Z,1011.36
2018-03-22T12:09:03.268Z,1011.38
2018-03-22T12:10:12.103Z,1011.3
2018-03-22T12:11:20.984Z,1011.33
2018-03-22T12:12:29.821Z,1011.34
2018-03-22T12:13:38.648Z,1011.3
2018-03-22T12:14:47.480Z,1011.36
2018-03-22T12:15:56.312Z,1011.34
2018-03-22T12:17:05.447Z,1011.35
2018-03-22T12:18:14.278Z,1011.28
2018-03-22T12:19:23.109Z,1011.39
2018-03-22T12:20:31.941Z,1011.32
2018-03-22T12:21:40.835Z,1011.31
2018-03-22T12:22:49.756Z,1011.3
2018-03-22T12:23:58.590Z,1011.36
2018-03-22T12:25:07.427Z,1011.32
2018-03-22T12:26:16.260Z,1011.35
2018-03-22T12:27:25.093Z,1011.35
2018-03-22T12:28:33.978Z,1011.32
2018-03-22T12:29:43.083Z,1011.3
2018-03-22T12:30:52.193Z,1011.3
2018-03-22T12:32:01.024Z,1011.32
2018-03-22T12:33:10.131Z,1011.41
2018-03-22T12:34:19.063Z,1011.41
2018-03-22T12:35:27.901Z,1011.32
2018-03-22T12:36:36.729Z,1011.28
2018-03-22T12:37:45.564Z,1011.26
2018-03-22T12:38:54.398Z,1011.29
2018-03-22T12:40:03.282Z,1011.34
2018-03-22T12:41:12.115Z,1011.27
2018-03-22T12:42:21.048Z,1011.31
2018-03-22T12:43:29.897Z,1011.34
2018-03-22T12:44:38.717Z,1011.3
2018-03-22T12:45:47.564Z,1011.31
2018-03-22T12:46:56.396Z,1011.32
2018-03-22T12:48:05.238Z,1011.37
2018-03-22T12:49:14.069Z,1011.33
2018-03-22T12:50:23.464Z,1011.31
2018-03-22T12:51:32.297Z,1011.32
2018-03-22T12:52:41.129Z,1011.35
2018-03-22T12:53:49.986Z,1011.3
2018-03-22T12:54:59.107Z,1011.33
2018-03-22T12:56:07.937Z,1011.29
2018-03-22T12:57:16.920Z,1011.31
2018-03-22T12:58:25.754Z,1011.32
2018-03-22T12:59:34.587Z,1011.33
2018-03-22T13:00:43.422Z,1011.32
2018-03-22T13:01:52.252Z,1011.39
2018-03-22T13:03:01.137Z,1011.3
2018-03-22T13:04:09.970Z,1011.31
2018-03-22T13:05:18.802Z,1011.31
2018-03-22T13:06:27.914Z,1011.25
2018-03-22T13:07:36.744Z,1011.28
2018-03-22T13:08:45.685Z,1011.31
2018-03-22T13:09:54.517Z,1011.31
2018-03-22T13:11:03.350Z,1011.28
2018-03-22T13:12:12.455Z,1011.32
2018-03-22T13:13:21.287Z,1011.34
2018-03-22T13:14:30.428Z,1011.29
2018-03-22T13:15:39.533Z,1011.34
2018-03-22T13:16:48.649Z,1011.39
2018-03-22T13:17:57.760Z,1011.34
2018-03-22T13:19:06.593Z,1011.32
2018-03-22T13:20:15.481Z,1011.35
2018-03-22T13:21:24.314Z,1011.34
2018-03-22T13:22:33.157Z,1011.32
2018-03-22T13:23:42.283Z,1011.28
2018-03-22T13:24:51.126Z,1011.25
2018-03-22T13:26:00.109Z,1011.31
2018-03-22T13:27:08.942Z,1011.27
2018-03-22T13:28:17.777Z,1011.29
2018-03-22T13:29:26.611Z,1011.31
2018-03-22T13:30:35.447Z,1011.26
2018-03-22T13:31:44.588Z,1011.25
2018-03-22T13:32:53.704Z,1011.31
2018-03-22T13:34:02.832Z,1011.23
2018-03-22T13:35:11.656Z,1011.19
2018-03-22T13:36:20.797Z,1011.09
2018-03-22T13:37:30.032Z,1011.11
2018-03-22T13:38:38.872Z,1011.16
2018-03-22T13:39:47.706Z,1011.14
2018-03-22T13:40:56.543Z,1011.18
2018-03-22T13:42:05.379Z,1011.15
2018-03-22T13:43:14.898Z,1011.2
2018-03-22T13:44:23.865Z,1011.16
2018-03-22T13:45:32.978Z,1011.16
2018-03-22T13:46:41.814Z,1011.14
2018-03-22T13:47:50.649Z,1011.16
2018-03-22T13:48:59.917Z,1011.15
2018-03-22T13:50:08.750Z,1011.19
2018-03-22T13:51:17.585Z,1011.15
2018-03-22T13:52:26.419Z,1011.19
2018-03-22T13:53:35.253Z,1011.16
2018-03-22T13:54:44.187Z,1011.12
2018-03-22T13:55:53.021Z,1011.15
2018-03-22T13:57:01.854Z,1011.08
2018-03-22T13:58:10.686Z,1011.19
2018-03-22T13:59:19.519Z,1011.21